Time;durP1;ratioP1;P1;durP2;ratioP2;P2;SDS_P1;SDS_P2;PMS_P1;PMS_P2;Temp;Humidity;BMP_temperature;BMP_pressure;BME280_temperature;BME280_humidity;BME280_pressure;Samples;Min_cycle;Max_cycle;Signal;HPM_P1;HPM_P2
2023/06/20 00:00:36;;;;;;;8.90;8.00;;;17.00;99.90;;;;;;6179500;23;20080;-62
2023/06/20 00:03:02;;;;;;;9.10;7.40;;;17.00;99.90;;;;;;6180085;23;20004;-62
2023/06/20 00:05:28;;;;;;;7.63;6.88;;;17.00;99.90;;;;;;6153603;23;20002;-62
2023/06/20 00:07:54;;;;;;;8.07;7.30;;;16.90;99.90;;;;;;6153107;23;20106;-62
2023/06/20 00:10:20;;;;;;;11.68;7.63;;;16.90;99.90;;;;;;6153597;23;20025;-62
2023/06/20 00:12:46;;;;;;;7.78;6.97;;;16.80;99.90;;;;;;6180549;23;20005;-62
2023/06/20 00:15:11;;;;;;;7.97;7.03;;;16.80;99.90;;;;;;6179947;23;20076;-62
2023/06/20 00:17:38;;;;;;;8.23;7.43;;;16.80;99.90;;;;;;6180350;23;20001;-62
2023/06/20 00:20:08;;;;;;;9.27;7.78;;;16.80;99.90;;;;;;6179906;23;20375;-61
2023/06/20 00:22:34;;;;;;;8.38;7.53;;;16.70;99.90;;;;;;6179919;23;20016;-62
2023/06/20 00:25:01;;;;;;;8.93;8.02;;;16.70;99.90;;;;;;6179677;23;20492;-62
2023/06/20 00:27:27;;;;;;;7.90;7.10;;;16.70;99.90;;;;;;6180010;23;20013;-61
2023/06/20 00:29:52;;;;;;;9.43;7.32;;;16.60;99.90;;;;;;6180030;23;20083;-61
2023/06/20 00:32:18;;;;;;;8.30;7.50;;;16.60;99.90;;;;;;6152415;23;20104;-62
2023/06/20 00:34:44;;;;;;;8.52;7.63;;;16.50;99.90;;;;;;6152839;23;20013;-62
2023/06/20 00:37:09;;;;;;;9.43;7.18;;;16.50;99.90;;;;;;6179627;23;20323;-62
2023/06/20 00:39:35;;;;;;;9.32;7.70;;;16.50;99.90;;;;;;6153232;23;20710;-62
2023/06/20 00:42:00;;;;;;;8.38;7.47;;;16.40;99.90;;;;;;6176012;23;20614;-62
2023/06/20 00:44:26;;;;;;;12.27;9.20;;;16.40;99.90;;;;;;6178674;23;20063;-62
2023/06/20 00:46:52;;;;;;;10.20;8.77;;;16.40;99.90;;;;;;6179362;23;20079;-61
2023/06/20 00:49:18;;;;;;;8.98;8.13;;;16.40;99.90;;;;;;6180256;23;20005;-62
2023/06/20 00:51:44;;;;;;;10.00;7.43;;;16.40;99.90;;;;;;6179932;23;20008;-61
2023/06/20 00:54:10;;;;;;;10.85;8.05;;;16.30;99.90;;;;;;6179545;23;20005;-61
2023/06/20 00:56:36;;;;;;;8.23;7.07;;;16.30;99.90;;;;;;6128805;23;20011;-61
2023/06/20 00:59:03;;;;;;;7.97;7.18;;;16.20;99.90;;;;;;6177310;23;20040;-61
2023/06/20 01:01:31;;;;;;;9.00;8.10;;;16.20;99.90;;;;;;6149593;23;20013;-62
2023/06/20 01:03:59;;;;;;;10.18;7.90;;;16.20;99.90;;;;;;6177253;23;20091;-61
2023/06/20 01:06:53;;;;;;;8.30;7.45;;;16.20;99.90;;;;;;6153460;23;20032;-62
2023/06/20 01:09:28;;;;;;;8.68;7.60;;;16.20;99.90;;;;;;6152155;23;20001;-61
2023/06/20 01:12:19;;;;;;;10.02;8.85;;;16.20;99.90;;;;;;6179801;23;20012;-62
2023/06/20 01:15:15;;;;;;;9.43;8.43;;;16.10;99.90;;;;;;6179354;23;20016;-62
2023/06/20 01:17:47;;;;;;;9.45;8.40;;;16.10;99.90;;;;;;6179175;23;20005;-61
2023/06/20 01:20:43;;;;;;;8.07;7.38;;;16.00;99.90;;;;;;6180526;23;20005;-61
2023/06/20 01:23:33;;;;;;;12.45;8.43;;;16.00;99.90;;;;;;6153736;23;20033;-62
2023/06/20 01:26:04;;;;;;;9.57;7.90;;;16.00;99.90;;;;;;6181503;23;20001;-61
2023/06/20 01:28:44;;;;;;;10.82;8.70;;;15.90;99.90;;;;;;6154449;23;20017;-62
2023/06/20 01:31:16;;;;;;;9.73;8.43;;;15.90;99.90;;;;;;6180984;23;20017;-61
2023/06/20 01:33:49;;;;;;;9.38;8.38;;;15.90;99.90;;;;;;6181449;23;20068;-61
2023/06/20 01:36:19;;;;;;;8.85;7.80;;;15.80;99.90;;;;;;6181585;23;20631;-62
2023/06/20 01:38:47;;;;;;;9.07;7.75;;;15.80;99.90;;;;;;6181555;23;20111;-61
2023/06/20 01:41:16;;;;;;;11.35;9.00;;;15.80;99.90;;;;;;6181799;23;20001;-61
2023/06/20 01:43:44;;;;;;;9.90;8.95;;;15.80;99.90;;;;;;6181121;23;20005;-61
2023/06/20 01:46:11;;;;;;;9.63;8.25;;;15.70;99.90;;;;;;6181561;23;20080;-61
2023/06/20 01:48:39;;;;;;;9.38;8.35;;;15.70;99.90;;;;;;6180718;23;20005;-61
2023/06/20 01:51:04;;;;;;;9.40;8.38;;;15.60;99.90;;;;;;6181038;23;20005;-61
2023/06/20 01:53:33;;;;;;;11.98;8.88;;;15.60;99.90;;;;;;6181321;23;20059;-61
2023/06/20 01:56:01;;;;;;;10.80;9.20;;;15.60;99.90;;;;;;6181241;23;20001;-61
2023/06/20 01:58:28;;;;;;;9.10;8.07;;;15.60;99.90;;;;;;6181592;23;20001;-61
2023/06/20 02:00:57;;;;;;;10.30;9.13;;;15.50;99.90;;;;;;6180864;23;20601;-61
2023/06/20 02:03:26;;;;;;;10.40;9.38;;;15.50;99.90;;;;;;6181311;23;20075;-61
2023/06/20 02:05:54;;;;;;;8.98;8.05;;;15.40;99.90;;;;;;6180439;23;20009;-61
2023/06/20 02:08:21;;;;;;;10.63;9.43;;;15.40;99.90;;;;;;6153779;23;20096;-61
2023/06/20 02:10:48;;;;;;;9.57;8.57;;;15.30;99.90;;;;;;6180779;23;20088;-60
2023/06/20 02:13:14;;;;;;;11.20;9.25;;;15.30;99.90;;;;;;6181352;23;20076;-61
2023/06/20 02:15:40;;;;;;;8.80;7.90;;;15.30;99.90;;;;;;6180763;23;20005;-61
2023/06/20 02:18:06;;;;;;;11.43;9.68;;;15.30;99.90;;;;;;6181196;23;20001;-60
2023/06/20 02:20:32;;;;;;;10.82;9.50;;;15.20;99.90;;;;;;6182056;23;20020;-61
2023/06/20 02:22:59;;;;;;;9.73;8.43;;;15.20;99.90;;;;;;6180835;23;20012;-61
2023/06/20 02:25:33;;;;;;;10.63;9.40;;;15.20;99.90;;;;;;6180699;23;20005;-62
2023/06/20 02:27:59;;;;;;;11.48;9.60;;;15.20;99.90;;;;;;6180998;23;20009;-62
2023/06/20 02:30:29;;;;;;;8.88;7.97;;;15.10;99.90;;;;;;6180629;23;20078;-62
2023/06/20 02:32:57;;;;;;;11.73;10.45;;;15.10;99.90;;;;;;6180373;23;20402;-61
2023/06/20 02:35:24;;;;;;;11.68;10.38;;;15.20;99.90;;;;;;6180880;23;20434;-61
2023/06/20 02:37:56;;;;;;;13.07;9.52;;;15.20;99.90;;;;;;6181514;23;20005;-62
2023/06/20 02:40:23;;;;;;;11.05;9.80;;;15.10;99.90;;;;;;6180976;23;20008;-61
2023/06/20 02:42:49;;;;;;;13.20;10.90;;;15.10;99.90;;;;;;6154357;23;20039;-60
2023/06/20 02:45:15;;;;;;;12.23;10.43;;;15.00;99.90;;;;;;6180597;23;20009;-60
2023/06/20 02:48:18;;;;;;;11.80;9.70;;;15.10;99.90;;;;;;6154191;23;20007;-62
2023/06/20 02:50:59;;;;;;;14.63;10.75;;;15.10;99.90;;;;;;6180986;23;20592;-61
2023/06/20 02:53:52;;;;;;;12.10;9.55;;;15.00;99.90;;;;;;6180436;23;20005;-60
2023/06/20 02:56:18;;;;;;;11.43;10.30;;;15.00;99.90;;;;;;6153729;23;20196;-60
2023/06/20 02:58:51;;;;;;;11.73;9.75;;;15.00;99.90;;;;;;6180002;23;20380;-61
2023/06/20 03:01:21;;;;;;;11.70;10.40;;;15.00;99.90;;;;;;6153152;23;20017;-62
2023/06/20 03:03:49;;;;;;;10.10;9.20;;;15.00;99.90;;;;;;6179806;23;20024;-62
2023/06/20 03:06:16;;;;;;;11.63;10.10;;;14.90;99.90;;;;;;6180103;23;20007;-62
2023/06/20 03:08:49;;;;;;;12.55;10.90;;;15.00;99.90;;;;;;6179274;23;20028;-61
2023/06/20 03:11:15;;;;;;;11.02;9.90;;;15.00;99.90;;;;;;6180020;23;20012;-62
2023/06/20 03:13:41;;;;;;;13.38;11.10;;;15.00;99.90;;;;;;6179623;23;20473;-62
2023/06/20 03:16:09;;;;;;;12.88;11.15;;;15.00;99.90;;;;;;6179532;23;20089;-61
2023/06/20 03:18:38;;;;;;;11.75;10.60;;;15.00;99.90;;;;;;6179841;23;20063;-61
2023/06/20 03:21:04;;;;;;;13.35;11.30;;;15.00;99.90;;;;;;6179797;23;20011;-61
2023/06/20 03:23:30;;;;;;;11.55;10.35;;;15.00;99.90;;;;;;6179485;23;20005;-62
2023/06/20 03:25:55;;;;;;;12.90;11.18;;;15.00;99.90;;;;;;6179175;23;20005;-62
2023/06/20 03:28:22;;;;;;;11.90;10.60;;;15.00;99.90;;;;;;6179548;23;20005;-62
2023/06/20 03:30:48;;;;;;;12.43;11.15;;;15.00;99.90;;;;;;6152285;23;20449;-60
2023/06/20 03:33:13;;;;;;;17.92;12.48;;;15.10;99.90;;;;;;6153243;23;20005;-62
2023/06/20 03:35:40;;;;;;;10.93;9.70;;;15.10;99.90;;;;;;6153100;23;20049;-62
2023/06/20 03:38:05;;;;;;;13.32;11.90;;;15.10;99.90;;;;;;6179220;23;20004;-61
2023/06/20 03:40:31;;;;;;;10.60;9.50;;;15.10;99.90;;;;;;6179489;23;20071;-61
2023/06/20 03:42:57;;;;;;;11.55;10.35;;;15.10;99.90;;;;;;6179163;23;20456;-60
2023/06/20 03:45:23;;;;;;;11.88;10.68;;;15.10;99.90;;;;;;6178954;23;20005;-61
2023/06/20 03:47:48;;;;;;;13.52;12.23;;;15.20;99.90;;;;;;6152488;23;20001;-61
2023/06/20 03:52:58;;;;;;;14.10;12.60;;;15.30;99.90;;;;;;6179111;23;20012;-61
2023/06/20 03:55:24;;;;;;;15.45;13.40;;;15.30;99.90;;;;;;6178400;23;20028;-61
2023/06/20 03:57:49;;;;;;;13.20;11.88;;;15.30;99.90;;;;;;6179572;23;20055;-62
2023/06/20 04:00:15;;;;;;;14.80;12.23;;;15.30;99.90;;;;;;6178461;23;20578;-61
2023/06/20 04:02:41;;;;;;;11.57;10.38;;;15.30;99.90;;;;;;6179697;23;20461;-60
2023/06/20 04:05:08;;;;;;;12.88;11.43;;;15.40;99.90;;;;;;6152571;23;20009;-60
2023/06/20 04:07:35;;;;;;;15.20;11.23;;;15.50;99.90;;;;;;6178625;23;20040;-62
2023/06/20 04:10:01;;;;;;;12.63;10.98;;;15.60;99.90;;;;;;6179823;23;20051;-63
2023/06/20 04:12:26;;;;;;;14.93;11.77;;;15.60;99.90;;;;;;6179325;23;20036;-62
2023/06/20 04:14:53;;;;;;;14.60;12.73;;;15.70;99.90;;;;;;6179184;23;20401;-62
2023/06/20 04:17:19;;;;;;;15.80;13.57;;;15.80;99.90;;;;;;6179197;23;19997;-61
2023/06/20 04:19:45;;;;;;;15.52;13.43;;;15.90;99.90;;;;;;6179016;23;20074;-62
2023/06/20 04:22:12;;;;;;;14.10;12.70;;;16.00;99.90;;;;;;6179338;23;20088;-62
2023/06/20 04:24:38;;;;;;;15.15;12.85;;;16.10;99.90;;;;;;6178640;23;20012;-62
2023/06/20 04:27:04;;;;;;;13.73;12.15;;;16.20;99.90;;;;;;6179630;23;20005;-62
2023/06/20 04:29:30;;;;;;;13.63;12.23;;;16.30;99.90;;;;;;6178764;23;20021;-62
2023/06/20 04:31:56;;;;;;;13.52;12.13;;;16.30;99.90;;;;;;6179088;23;20005;-62
2023/06/20 04:34:23;;;;;;;12.82;11.50;;;16.40;99.90;;;;;;6177216;23;20066;-62
2023/06/20 04:36:50;;;;;;;13.05;11.70;;;16.50;99.90;;;;;;6178387;23;20001;-63
2023/06/20 04:39:16;;;;;;;12.30;10.60;;;16.50;99.90;;;;;;6179800;23;19997;-62
2023/06/20 04:41:41;;;;;;;12.95;10.85;;;16.60;99.90;;;;;;6179980;23;20008;-62
2023/06/20 04:44:08;;;;;;;13.07;11.65;;;16.70;99.90;;;;;;6178473;23;20345;-62
2023/06/20 04:46:33;;;;;;;14.27;11.35;;;16.80;99.90;;;;;;6179481;23;20445;-62
2023/06/20 04:49:00;;;;;;;15.27;11.43;;;16.80;99.90;;;;;;6178274;23;20001;-62
2023/06/20 04:51:27;;;;;;;13.32;10.68;;;16.90;99.90;;;;;;6179001;23;20441;-62
2023/06/20 04:53:52;;;;;;;10.98;9.88;;;16.90;99.90;;;;;;6178902;23;19997;-62
2023/06/20 04:56:19;;;;;;;10.98;9.88;;;17.00;99.90;;;;;;6153948;23;20023;-62
2023/06/20 04:58:45;;;;;;;10.90;9.75;;;17.00;99.90;;;;;;6181079;23;20012;-62
2023/06/20 05:01:14;;;;;;;10.90;9.68;;;17.10;99.90;;;;;;6154301;23;20014;-63
2023/06/20 05:03:41;;;;;;;11.65;10.45;;;17.20;99.90;;;;;;6180723;23;20072;-63
2023/06/20 05:06:07;;;;;;;10.15;9.07;;;17.20;99.90;;;;;;6181077;23;19997;-63
2023/06/20 05:08:32;;;;;;;10.38;9.25;;;17.30;99.90;;;;;;6180044;23;19997;-63
2023/06/20 05:10:58;;;;;;;12.07;9.07;;;17.30;99.90;;;;;;6180813;23;20092;-62
2023/06/20 05:13:23;;;;;;;10.40;8.82;;;17.40;99.90;;;;;;6181306;23;20005;-62
2023/06/20 05:15:49;;;;;;;11.55;9.52;;;17.40;99.90;;;;;;6180697;23;20414;-63
2023/06/20 05:18:15;;;;;;;9.15;8.02;;;17.40;99.90;;;;;;6154947;23;20068;-62
2023/06/20 05:20:40;;;;;;;9.25;8.35;;;17.50;99.90;;;;;;6180916;23;19997;-62
2023/06/20 05:23:06;;;;;;;8.60;7.32;;;17.50;99.90;;;;;;6180686;23;20094;-62
2023/06/20 05:25:32;;;;;;;8.80;7.88;;;17.50;99.90;;;;;;6180527;23;20001;-63
2023/06/20 05:27:57;;;;;;;8.95;7.93;;;17.60;99.90;;;;;;6154387;23;20401;-63
2023/06/20 05:30:23;;;;;;;8.10;7.30;;;17.60;99.90;;;;;;6180235;23;20029;-62
2023/06/20 05:32:49;;;;;;;7.50;6.60;;;17.70;99.90;;;;;;6180750;23;20433;-62
2023/06/20 05:35:15;;;;;;;7.70;6.90;;;17.70;99.90;;;;;;6154036;23;20036;-62
2023/06/20 05:37:40;;;;;;;6.68;5.97;;;17.80;99.90;;;;;;6154132;23;20055;-63
2023/06/20 05:40:06;;;;;;;7.65;6.22;;;17.80;99.90;;;;;;6180956;23;20005;-63
2023/06/20 05:42:32;;;;;;;7.05;6.28;;;17.80;99.90;;;;;;6180797;23;20070;-62
2023/06/20 05:44:58;;;;;;;8.82;7.85;;;17.90;99.90;;;;;;6179497;23;20408;-63
2023/06/20 05:47:24;;;;;;;10.25;7.70;;;18.00;99.90;;;;;;6154759;23;20001;-62
2023/06/20 05:49:49;;;;;;;7.22;6.43;;;18.00;99.90;;;;;;6180630;23;20076;-63
2023/06/20 05:52:15;;;;;;;6.50;5.90;;;18.00;99.90;;;;;;6153197;23;20083;-62
2023/06/20 05:54:43;;;;;;;7.13;6.43;;;18.10;99.90;;;;;;6180393;23;19997;-63
2023/06/20 05:57:09;;;;;;;7.82;7.03;;;18.20;99.90;;;;;;6180704;23;20000;-63
2023/06/20 05:59:35;;;;;;;5.88;5.28;;;18.20;99.90;;;;;;6180540;23;20399;-62
2023/06/20 06:02:01;;;;;;;7.03;6.10;;;18.30;99.90;;;;;;6153354;23;20430;-63
2023/06/20 06:04:26;;;;;;;8.25;6.65;;;18.30;99.90;;;;;;6180825;23;20024;-63
2023/06/20 06:06:52;;;;;;;6.18;5.57;;;18.30;99.90;;;;;;6179899;23;20013;-63
2023/06/20 06:09:19;;;;;;;5.55;5.05;;;18.30;99.90;;;;;;6179030;23;20001;-63
2023/06/20 06:11:45;;;;;;;7.10;6.10;;;18.40;99.90;;;;;;6180549;23;20079;-62
2023/06/20 06:14:11;;;;;;;6.45;5.85;;;18.40;99.90;;;;;;6180414;23;20004;-63
2023/06/20 06:16:37;;;;;;;6.28;5.65;;;18.50;99.90;;;;;;6181092;23;20000;-63
2023/06/20 06:19:03;;;;;;;8.70;6.63;;;18.70;99.90;;;;;;6153745;23;20452;-62
2023/06/20 06:21:29;;;;;;;6.35;5.75;;;18.90;99.90;;;;;;6152714;23;20013;-62
2023/06/20 06:23:55;;;;;;;7.57;6.20;;;18.90;99.90;;;;;;6179714;23;20023;-63
2023/06/20 06:26:20;;;;;;;6.70;5.95;;;18.90;99.90;;;;;;6181441;23;20008;-63
2023/06/20 06:28:46;;;;;;;6.30;5.70;;;19.00;99.90;;;;;;6180241;23;20630;-62
2023/06/20 06:31:17;;;;;;;6.97;6.18;;;19.10;99.90;;;;;;6180033;23;20067;-62
2023/06/20 06:33:43;;;;;;;6.07;5.47;;;19.20;99.90;;;;;;6180431;23;20001;-63
2023/06/20 06:36:09;;;;;;;5.88;5.32;;;19.30;99.90;;;;;;6180241;23;20005;-63
2023/06/20 06:38:35;;;;;;;6.57;5.45;;;19.50;99.90;;;;;;6179313;23;20032;-63
2023/06/20 06:41:01;;;;;;;6.55;5.95;;;19.60;99.90;;;;;;6180652;23;19997;-63
2023/06/20 06:43:27;;;;;;;5.70;4.90;;;19.70;99.90;;;;;;6179407;23;20422;-62
2023/06/20 06:45:53;;;;;;;5.10;4.47;;;19.80;99.90;;;;;;6179920;23;19997;-63
2023/06/20 06:48:18;;;;;;;5.38;4.88;;;19.90;99.90;;;;;;6180234;23;20576;-62
2023/06/20 06:50:44;;;;;;;4.55;4.15;;;20.10;99.90;;;;;;6180217;23;20511;-62
2023/06/20 06:53:13;;;;;;;6.32;4.75;;;20.20;99.90;;;;;;6180128;23;20005;-63
2023/06/20 06:55:45;;;;;;;6.45;4.75;;;20.40;99.90;;;;;;6152766;23;20005;-64
2023/06/20 06:58:11;;;;;;;4.93;4.10;;;20.50;99.90;;;;;;6154106;23;20430;-64
2023/06/20 07:00:37;;;;;;;5.28;4.15;;;20.60;99.90;;;;;;6153663;23;20016;-64
2023/06/20 07:03:03;;;;;;;5.05;4.50;;;20.80;99.90;;;;;;6179993;23;20024;-63
2023/06/20 07:05:28;;;;;;;4.28;3.88;;;20.90;99.90;;;;;;6179702;23;20459;-63
2023/06/20 07:07:54;;;;;;;5.30;4.13;;;21.10;99.90;;;;;;6179707;23;20009;-64
2023/06/20 07:10:19;;;;;;;4.97;3.95;;;21.30;99.90;;;;;;6153489;23;20009;-64
2023/06/20 07:12:45;;;;;;;4.47;4.07;;;21.40;99.90;;;;;;6180389;23;20589;-64
2023/06/20 07:15:11;;;;;;;5.18;3.85;;;21.60;99.90;;;;;;6179900;23;19997;-64
2023/06/20 07:17:36;;;;;;;4.57;3.85;;;21.80;99.90;;;;;;6180077;23;20021;-64
2023/06/20 07:20:07;;;;;;;4.43;3.45;;;21.90;99.90;;;;;;6179743;23;20016;-64
2023/06/20 07:22:33;;;;;;;3.92;3.63;;;22.10;99.90;;;;;;6179601;23;20032;-64
2023/06/20 07:24:58;;;;;;;4.55;4.15;;;22.20;99.90;;;;;;6153480;23;20013;-64
2023/06/20 07:27:24;;;;;;;5.07;3.72;;;22.40;99.90;;;;;;6179981;23;20345;-64
2023/06/20 07:29:49;;;;;;;4.18;3.60;;;22.40;99.90;;;;;;6157596;23;20041;-52
2023/06/20 07:32:16;;;;;;;3.85;3.50;;;22.50;99.90;;;;;;6171973;23;20006;-52
2023/06/20 07:34:42;;;;;;;4.50;3.67;;;22.60;99.90;;;;;;6148671;23;20001;-58
2023/06/20 07:37:07;;;;;;;3.97;3.58;;;22.70;99.20;;;;;;6147465;23;20032;-50
2023/06/20 07:39:33;;;;;;;4.45;3.88;;;22.80;99.30;;;;;;6149335;23;20006;-52
2023/06/20 07:41:58;;;;;;;4.47;3.83;;;22.90;99.50;;;;;;6149522;23;20842;-55
2023/06/20 07:44:24;;;;;;;5.25;3.67;;;23.00;99.40;;;;;;6148938;23;20036;-57
2023/06/20 07:46:50;;;;;;;3.72;3.20;;;23.20;99.60;;;;;;6147856;23;20009;-55
2023/06/20 07:49:15;;;;;;;3.75;3.45;;;23.40;99.20;;;;;;6149343;23;20009;-53
2023/06/20 07:51:42;;;;;;;4.13;3.63;;;23.50;98.90;;;;;;6149636;23;20390;-57
2023/06/20 07:54:08;;;;;;;3.67;3.38;;;23.60;98.10;;;;;;6147729;23;20013;-55
2023/06/20 07:56:33;;;;;;;4.82;3.22;;;23.70;97.80;;;;;;6148694;23;20383;-55
2023/06/20 07:58:59;;;;;;;3.42;3.13;;;23.90;96.80;;;;;;6149372;23;20071;-56
2023/06/20 08:01:25;;;;;;;3.90;3.50;;;23.90;95.70;;;;;;6148992;23;20010;-54
2023/06/20 08:03:50;;;;;;;3.92;3.38;;;24.10;96.50;;;;;;6149714;23;20029;-51
2023/06/20 08:06:16;;;;;;;5.03;3.22;;;24.10;96.40;;;;;;6149494;23;20044;-54
2023/06/20 08:08:41;;;;;;;3.65;3.20;;;24.20;96.20;;;;;;6148872;23;20001;-54
2023/06/20 08:11:07;;;;;;;3.40;3.10;;;24.30;95.30;;;;;;6147921;23;20084;-53
2023/06/20 08:13:33;;;;;;;4.43;3.83;;;24.40;95.10;;;;;;6148759;23;20346;-51
2023/06/20 08:15:58;;;;;;;3.55;3.25;;;24.50;95.20;;;;;;6149294;23;20503;-53
2023/06/20 08:18:24;;;;;;;4.80;4.07;;;24.60;95.00;;;;;;6149490;23;20006;-53
2023/06/20 08:20:50;;;;;;;4.75;3.38;;;24.70;94.50;;;;;;6149260;23;20006;-54
2023/06/20 08:23:26;;;;;;;4.75;3.88;;;24.80;94.70;;;;;;6149401;23;20009;-55
2023/06/20 08:25:55;;;;;;;3.58;3.08;;;25.00;95.20;;;;;;6149119;23;20005;-54
2023/06/20 08:28:22;;;;;;;3.80;3.50;;;25.20;94.60;;;;;;6148791;23;20016;-56
2023/06/20 08:30:47;;;;;;;3.45;3.15;;;25.40;94.70;;;;;;6148507;23;20036;-52
2023/06/20 08:33:13;;;;;;;4.82;3.60;;;25.40;93.30;;;;;;6149975;23;20005;-52
2023/06/20 08:35:38;;;;;;;3.60;3.28;;;25.50;93.30;;;;;;6147650;23;20716;-54
2023/06/20 08:38:05;;;;;;;4.03;3.50;;;25.60;92.00;;;;;;6149673;23;20100;-57
2023/06/20 08:40:31;;;;;;;4.68;3.38;;;25.70;92.20;;;;;;6149272;23;20008;-57
2023/06/20 08:42:57;;;;;;;3.88;3.33;;;25.90;91.10;;;;;;6149481;23;20076;-58
2023/06/20 08:45:23;;;;;;;3.17;2.85;;;25.90;91.40;;;;;;6149434;23;19998;-57
2023/06/20 08:47:48;;;;;;;3.22;2.88;;;26.00;91.90;;;;;;6149591;23;20005;-58
2023/06/20 08:50:14;;;;;;;2.92;2.70;;;26.20;92.00;;;;;;6149433;23;20009;-55
2023/06/20 08:52:52;;;;;;;3.70;3.28;;;26.10;91.50;;;;;;6149297;23;20013;-55
2023/06/20 08:55:18;;;;;;;3.15;2.90;;;26.30;91.70;;;;;;6148397;23;20421;-58
2023/06/20 08:57:45;;;;;;;3.55;3.00;;;26.20;90.90;;;;;;6148982;23;20492;-54
2023/06/20 09:00:20;;;;;;;4.18;3.55;;;26.10;91.30;;;;;;6148764;23;20002;-57
2023/06/20 09:02:47;;;;;;;4.30;3.38;;;26.20;91.00;;;;;;6149757;23;20005;-56
2023/06/20 09:05:12;;;;;;;3.55;3.25;;;26.30;91.40;;;;;;6148799;23;20072;-56
2023/06/20 09:07:39;;;;;;;3.50;3.17;;;26.30;90.60;;;;;;6148912;23;20430;-55
2023/06/20 09:10:06;;;;;;;3.53;3.22;;;26.10;90.50;;;;;;6149007;23;20035;-54
2023/06/20 09:12:51;;;;;;;3.50;3.20;;;25.90;90.40;;;;;;6149985;23;20004;-55
2023/06/20 09:15:22;;;;;;;4.47;3.40;;;26.00;90.90;;;;;;6148960;23;20011;-56
2023/06/20 09:17:51;;;;;;;4.13;3.72;;;26.00;90.90;;;;;;6149051;23;20576;-58
2023/06/20 09:20:17;;;;;;;3.60;3.30;;;26.00;90.70;;;;;;6149706;23;20072;-55
2023/06/20 09:22:43;;;;;;;3.60;3.30;;;26.10;90.80;;;;;;6148762;23;20404;-53
2023/06/20 09:25:11;;;;;;;3.58;3.22;;;26.30;90.90;;;;;;6149272;23;20010;-56
2023/06/20 09:27:40;;;;;;;3.80;3.45;;;26.60;90.80;;;;;;6147264;23;20078;-55
2023/06/20 09:30:06;;;;;;;3.53;3.22;;;26.90;90.70;;;;;;6148396;23;20112;-55
2023/06/20 09:32:37;;;;;;;3.90;3.53;;;27.10;90.30;;;;;;6148903;23;20001;-54
2023/06/20 09:35:04;;;;;;;4.00;3.25;;;27.20;90.20;;;;;;6149056;23;20300;-58
2023/06/20 09:37:40;;;;;;;5.57;3.10;;;27.30;90.10;;;;;;6149501;23;20179;-55
2023/06/20 09:40:12;;;;;;;;;;;27.40;89.50;;;;;;6149511;23;20010;-55
2023/06/20 09:42:39;;;;;;;4.63;3.55;;;27.20;89.40;;;;;;6149870;23;19980;-58
2023/06/20 09:45:06;;;;;;;3.72;3.38;;;27.30;90.30;;;;;;6150912;23;20005;-56
2023/06/20 09:47:34;;;;;;;3.78;3.47;;;27.40;90.30;;;;;;6151083;23;20072;-57
2023/06/20 09:50:05;;;;;;;3.95;3.42;;;27.50;88.80;;;;;;6150214;23;20001;-53
2023/06/20 09:52:39;;;;;;;5.30;3.95;;;27.40;89.50;;;;;;6151049;23;19998;-51
2023/06/20 09:55:11;;;;;;;4.22;3.92;;;27.40;90.00;;;;;;6150205;23;20046;-57
2023/06/20 09:57:42;;;;;;;3.38;3.08;;;27.50;90.00;;;;;;6151664;23;20024;-56
2023/06/20 10:00:15;;;;;;;4.45;3.78;;;27.50;89.80;;;;;;6150098;23;20013;-56
2023/06/20 10:02:45;;;;;;;3.85;3.53;;;27.40;89.10;;;;;;6149232;23;20025;-57
2023/06/20 10:05:13;;;;;;;4.43;3.60;;;27.40;90.20;;;;;;6150731;23;20076;-58
2023/06/20 10:07:41;;;;;;;4.38;3.53;;;27.40;90.20;;;;;;6150260;23;20449;-56
2023/06/20 10:10:07;;;;;;;4.07;3.78;;;27.50;89.90;;;;;;6150649;23;20005;-55
2023/06/20 10:12:33;;;;;;;4.22;3.83;;;27.50;90.20;;;;;;6149061;23;20081;-52
2023/06/20 10:15:03;;;;;;;4.07;3.67;;;27.40;90.50;;;;;;6151005;23;20590;-54
2023/06/20 10:17:35;;;;;;;4.30;3.90;;;27.30;90.10;;;;;;6151064;23;20486;-53
2023/06/20 10:20:05;;;;;;;5.22;3.83;;;27.20;90.00;;;;;;6151330;23;20005;-58
2023/06/20 10:22:33;;;;;;;5.00;4.15;;;27.10;89.60;;;;;;6151256;23;20016;-56
2023/06/20 10:25:13;;;;;;;4.18;3.80;;;27.20;90.30;;;;;;6150429;23;20116;-52
2023/06/20 10:27:41;;;;;;;4.50;4.07;;;27.30;89.50;;;;;;6150847;23;20023;-52
2023/06/20 10:30:07;;;;;;;4.05;3.25;;;27.30;90.10;;;;;;6148590;23;20013;-52
2023/06/20 10:32:34;;;;;;;4.10;3.70;;;27.50;90.00;;;;;;6150744;23;20033;-52
2023/06/20 10:35:09;;;;;;;4.28;3.88;;;27.60;89.50;;;;;;6149057;23;20002;-56
2023/06/20 10:37:38;;;;;;;5.07;4.57;;;27.60;90.20;;;;;;6151338;23;20080;-53
2023/06/20 10:40:09;;;;;;;5.00;4.20;;;27.60;90.10;;;;;;6150508;23;20037;-52
2023/06/20 10:42:34;;;;;;;4.22;3.92;;;27.70;89.90;;;;;;6150947;23;20002;-52
2023/06/20 10:45:25;;;;;;;4.10;3.72;;;27.70;89.80;;;;;;6150535;23;20116;-56
2023/06/20 10:47:52;;;;;;;4.72;4.30;;;27.70;89.90;;;;;;6148584;23;20002;-52
2023/06/20 10:50:18;;;;;;;5.82;4.72;;;27.70;89.60;;;;;;6151052;23;20327;-51
2023/06/20 10:52:44;;;;;;;5.88;4.22;;;27.40;88.80;;;;;;6150795;23;20575;-56
2023/06/20 10:55:21;;;;;;;4.18;3.88;;;27.20;89.60;;;;;;6149824;23;20025;-56
2023/06/20 10:57:47;;;;;;;5.32;4.40;;;27.10;90.10;;;;;;6150581;23;20001;-55
2023/06/20 11:00:17;;;;;;;4.47;4.00;;;27.00;90.20;;;;;;6149705;23;20009;-52
2023/06/20 11:02:46;;;;;;;4.40;4.00;;;26.90;90.00;;;;;;6150497;23;20046;-54
2023/06/20 11:05:12;;;;;;;5.38;4.25;;;26.80;90.20;;;;;;6150249;23;20104;-52
2023/06/20 11:08:01;;;;;;;5.15;4.65;;;26.70;90.50;;;;;;6150258;23;20013;-56
2023/06/20 11:10:33;;;;;;;4.95;4.45;;;26.70;90.50;;;;;;6149758;23;20009;-56
2023/06/20 11:13:04;;;;;;;5.30;4.47;;;26.70;90.50;;;;;;6148813;23;20052;-57
2023/06/20 11:15:32;;;;;;;4.50;4.20;;;26.70;90.70;;;;;;6148386;23;20075;-55
2023/06/20 11:18:01;;;;;;;5.00;4.60;;;26.70;90.60;;;;;;6150166;23;20055;-56
2023/06/20 11:20:27;;;;;;;5.15;4.30;;;26.70;90.90;;;;;;6150227;23;20023;-59
2023/06/20 11:22:54;;;;;;;5.13;4.63;;;26.70;90.60;;;;;;6150327;23;20008;-54
2023/06/20 11:25:24;;;;;;;4.60;4.20;;;26.80;90.90;;;;;;6149827;23;20080;-52
2023/06/20 11:27:50;;;;;;;4.90;4.45;;;26.70;90.90;;;;;;6149885;23;20386;-56
2023/06/20 11:30:22;;;;;;;4.53;4.00;;;26.80;91.10;;;;;;6147886;23;20017;-55
2023/06/20 11:33:06;;;;;;;5.75;4.40;;;26.90;91.10;;;;;;6149672;23;20042;-56
2023/06/20 11:35:42;;;;;;;5.85;4.72;;;26.90;91.20;;;;;;6150033;23;20002;-58
2023/06/20 11:38:13;;;;;;;;;;;27.00;91.20;;;;;;6148504;23;20084;-55
2023/06/20 11:40:39;;;;;;;4.93;4.53;;;27.00;90.70;;;;;;6149933;23;19958;-54
2023/06/20 11:43:05;;;;;;;5.80;5.03;;;27.10;90.90;;;;;;6149710;23;20017;-50
2023/06/20 11:45:32;;;;;;;4.78;4.38;;;27.20;91.20;;;;;;6147686;23;20017;-54
2023/06/20 11:48:13;;;;;;;5.65;4.53;;;27.20;91.10;;;;;;6149961;23;20335;-56
2023/06/20 11:50:42;;;;;;;5.97;4.90;;;27.20;91.00;;;;;;6149652;23;20033;-52
2023/06/20 11:53:18;;;;;;;5.72;5.22;;;27.20;90.80;;;;;;6149922;23;20108;-54
2023/06/20 11:55:54;;;;;;;5.13;4.38;;;27.20;91.00;;;;;;6149739;23;20753;-52
2023/06/20 11:58:21;;;;;;;5.50;4.88;;;27.10;91.10;;;;;;6149210;23;20535;-53
2023/06/20 12:00:58;;;;;;;4.97;4.57;;;27.10;91.10;;;;;;6149315;23;20481;-54
2023/06/20 12:03:23;;;;;;;6.57;4.93;;;27.10;91.30;;;;;;6150158;23;20005;-56
2023/06/20 12:05:49;;;;;;;5.22;4.82;;;27.20;91.30;;;;;;6149145;23;20314;-57
2023/06/20 12:08:15;;;;;;;4.80;4.40;;;27.30;91.20;;;;;;6150078;23;19997;-57
2023/06/20 12:10:48;;;;;;;6.60;4.85;;;27.30;91.30;;;;;;6149088;23;20005;-56
2023/06/20 12:13:15;;;;;;;5.25;4.85;;;27.30;91.10;;;;;;6149920;23;20081;-54
2023/06/20 12:15:40;;;;;;;14.68;4.80;;;27.40;91.30;;;;;;6149279;23;20518;-57
2023/06/20 12:18:06;;;;;;;5.85;5.28;;;27.50;91.40;;;;;;6149272;23;20009;-57
2023/06/20 12:20:32;;;;;;;5.00;4.55;;;27.60;90.70;;;;;;6149771;23;20097;-56
2023/06/20 12:22:58;;;;;;;7.40;4.82;;;27.60;90.90;;;;;;6149260;23;20041;-56
2023/06/20 12:25:24;;;;;;;4.95;4.45;;;27.60;90.70;;;;;;6149567;23;20001;-58
2023/06/20 12:27:49;;;;;;;5.10;4.70;;;27.70;90.90;;;;;;6149530;23;20155;-56
2023/06/20 12:30:15;;;;;;;5.00;4.60;;;27.70;90.70;;;;;;6148940;23;20073;-58
2023/06/20 12:32:41;;;;;;;5.22;4.82;;;27.70;90.40;;;;;;6149941;23;20092;-56
2023/06/20 12:35:07;;;;;;;5.38;4.95;;;27.70;90.20;;;;;;6148941;23;20002;-55
2023/06/20 12:37:32;;;;;;;5.18;4.70;;;27.60;90.10;;;;;;6148640;23;20001;-53
2023/06/20 12:39:58;;;;;;;5.63;5.13;;;27.60;90.40;;;;;;6149186;23;20342;-58
2023/06/20 12:42:24;;;;;;;5.43;4.93;;;27.60;90.50;;;;;;6149443;23;20013;-54
2023/06/20 12:44:50;;;;;;;5.45;4.95;;;27.60;90.40;;;;;;6147529;23;20005;-56
2023/06/20 12:47:16;;;;;;;5.47;4.97;;;27.60;90.60;;;;;;6148952;23;20025;-55
2023/06/20 12:49:41;;;;;;;5.60;5.10;;;27.50;90.40;;;;;;6149336;23;20006;-56